Current Weather Conditions: station NFBF1

sailwx.info

Wind from 070 at 8 knots gusting 9

Air temperature 28.2° C

Last reported at 2014-Sep-22 04:54 UTC.
Time now 2014-Sep-22 06:15 UTC

Location: N 25°05' W 081°05'.
View on Google Maps.

See reports from other nearby stations

  
Tides and Currents Weather Stations Pressure Air Temp Water Temp Dewpoint Dewpoint Depression Visibility Wind Speed Wind Dir Waves Ship Positions
date/time (UTC)wind fromknots sea level pressurealtimeterstation pressurevisibilityair tempwater tempwave heightnotes
2014-Sep-22 04:54 070 8 gusting 9 28.2
2014-Sep-22 04:48 060 7 gusting 8 28.1
2014-Sep-22 03:54 070 4 gusting 5 28.5
2014-Sep-22 03:48 070 4 gusting 5 28.3
2014-Sep-22 02:54 030 5 gusting 5 28.6
2014-Sep-22 02:48 030 4 gusting 5 28.7
2014-Sep-22 01:54 020 3 gusting 3 28.9
2014-Sep-22 01:48 020 2 gusting 3 28.9
2014-Sep-22 01:30 040 2 gusting 3 28.9
2014-Sep-22 00:54 040 1 gusting 2 28.9
2014-Sep-22 00:48 28.9
2014-Sep-21 23:30 28.9
2014-Sep-21 23:24 29.0
2014-Sep-21 23:18 29.0
2014-Sep-21 23:12 29.0
2014-Sep-21 23:06 29.1
2014-Sep-21 23:00 29.1
2014-Sep-21 22:54 180 1 gusting 2 29.2
2014-Sep-21 22:48 170 1 gusting 2 29.3
2014-Sep-21 22:42 160 1 gusting 2 29.4
2014-Sep-21 22:36 160 1 gusting 2 29.4
2014-Sep-21 22:30 29.5
2014-Sep-21 22:24 150 1 gusting 2 29.5
2014-Sep-21 22:18 160 2 gusting 4 29.3
2014-Sep-21 22:12 150 3 gusting 4 29.4
2014-Sep-21 22:06 170 2 gusting 4 29.4
2014-Sep-21 22:00 160 3 gusting 4 29.4
2014-Sep-21 21:54 160 3 gusting 4 29.6
2014-Sep-21 21:48 170 3 gusting 3 29.6
2014-Sep-21 20:54 180 3 gusting 4 29.2
2014-Sep-21 20:48 180 4 gusting 4 29.3
2014-Sep-21 19:54 180 3 gusting 5 29.0
2014-Sep-21 19:48 180 3 gusting 5 29.1
2014-Sep-21 18:54 30.1
2014-Sep-21 18:48 30.5
2014-Sep-21 18:42 30.8
2014-Sep-21 18:36 30.2
2014-Sep-21 18:30 100 1 gusting 2 30.0
2014-Sep-21 18:24 060 1 gusting 2 30.3
2014-Sep-21 18:18 30.4
2014-Sep-21 18:12 30.4
2014-Sep-21 18:06 30.3
2014-Sep-21 18:00 30.4
2014-Sep-21 17:54 29.9
2014-Sep-21 17:48 29.8
2014-Sep-21 17:42 30.2
2014-Sep-21 17:36 29.9
2014-Sep-21 17:30 30.0
2014-Sep-21 17:24 30.1
2014-Sep-21 17:18 30.1
2014-Sep-21 17:12 29.9
2014-Sep-21 17:06 29.5
2014-Sep-21 17:00 29.2
2014-Sep-21 16:54 29.0
2014-Sep-21 16:48 130 1 gusting 2 28.8
2014-Sep-21 15:54 28.6
2014-Sep-21 15:48 28.6
2014-Sep-21 15:42 28.7
2014-Sep-21 15:36 28.8
2014-Sep-21 15:30 28.6
2014-Sep-21 15:24 28.5
2014-Sep-21 15:18 28.4
2014-Sep-21 15:12 100 1 gusting 2 28.3
2014-Sep-21 15:06 120 2 gusting 3 28.3
2014-Sep-21 15:00 120 2 gusting 5 28.3
2014-Sep-21 14:54 100 1 gusting 4 28.4
2014-Sep-21 14:48 28.4
2014-Sep-21 13:54 150 2 gusting 3 28.4
2014-Sep-21 13:48 130 1 gusting 3 28.4
2014-Sep-21 13:42 140 2 gusting 4 28.5
2014-Sep-21 13:36 150 3 gusting 5 28.3
2014-Sep-21 13:30 160 4 gusting 4 28.1
2014-Sep-21 13:24 160 3 gusting 4 28.0
2014-Sep-21 13:18 150 2 gusting 3 28.0
2014-Sep-21 13:12 170 2 gusting 4 28.0
2014-Sep-21 13:06 190 2 gusting 4 27.9
2014-Sep-21 13:00 180 4 gusting 5 27.9
2014-Sep-21 12:54 180 4 gusting 5 27.9
2014-Sep-21 12:48 160 4 gusting 5 27.9
2014-Sep-21 11:54 160 4 gusting 5 27.8
2014-Sep-21 11:48 150 4 gusting 6 27.8
2014-Sep-21 11:42 150 4 gusting 5 27.9
2014-Sep-21 11:36 150 3 gusting 4 27.9
2014-Sep-21 11:30 140 4 gusting 4 27.9
2014-Sep-21 11:24 150 4 gusting 4 27.9
2014-Sep-21 11:18 140 3 gusting 4 27.9
2014-Sep-21 11:12 130 3 gusting 4 27.9
2014-Sep-21 11:06 140 3 gusting 4 27.8
2014-Sep-21 11:00 130 2 gusting 4 27.8
2014-Sep-21 10:54 150 3 gusting 4 27.8
2014-Sep-21 10:48 160 4 gusting 4 27.8
2014-Sep-21 09:54 150 7 gusting 8 27.8
2014-Sep-21 09:48 150 6 gusting 8 27.8
2014-Sep-21 08:54 110 1 gusting 3 27.8
2014-Sep-21 08:48 130 4 gusting 5 27.8
2014-Sep-21 07:54 140 4 gusting 5 27.6
2014-Sep-21 07:48 130 4 gusting 5 27.6
2014-Sep-21 07:42 130 3 gusting 4 27.7
2014-Sep-21 07:36 120 3 gusting 4 27.7
2014-Sep-21 07:30 130 2 gusting 3 27.7
2014-Sep-21 07:24 140 3 gusting 4 27.7
2014-Sep-21 07:18 150 4 gusting 5 27.6
2014-Sep-21 07:12 120 2 gusting 4 27.7
2014-Sep-21 07:06 27.6
2014-Sep-21 07:00 130 2 gusting 4 27.6
2014-Sep-21 06:54 120 2 gusting 3 27.6
2014-Sep-21 06:48 150 4 gusting 6 27.7
2014-Sep-21 05:54 160 5 gusting 7 27.4
2014-Sep-21 05:48 140 4 gusting 5 27.3
2014-Sep-21 05:42 150 5 gusting 7 27.3
2014-Sep-21 05:36 150 6 gusting 7 27.3
2014-Sep-21 05:30 160 6 gusting 8 27.2
2014-Sep-21 05:24 160 6 gusting 7 27.1
2014-Sep-21 05:18 160 6 gusting 7 27.2
2014-Sep-21 05:12 150 5 gusting 6 27.1
2014-Sep-21 05:06 130 3 gusting 4 27.1
2014-Sep-21 05:00 110 3 gusting 4 26.9
2014-Sep-21 04:54 120 4 gusting 4 26.9
2014-Sep-21 04:48 130 3 gusting 4 26.8
2014-Sep-21 03:54 110 4 gusting 5 26.8
2014-Sep-21 03:48 110 5 gusting 5 26.7
2014-Sep-21 03:42 100 4 gusting 5 26.7
2014-Sep-21 03:36 090 3 gusting 4 26.7
2014-Sep-21 03:30 090 3 gusting 3 26.7
2014-Sep-21 03:24 090 3 gusting 4 26.7
2014-Sep-21 03:18 080 3 gusting 4 26.7
2014-Sep-21 03:12 080 4 gusting 5 26.6
2014-Sep-21 03:06 070 4 gusting 5 26.7
2014-Sep-21 03:00 080 4 gusting 5 26.7
2014-Sep-21 02:54 070 4 gusting 4 26.7
2014-Sep-21 02:48 070 4 gusting 5 26.7
2014-Sep-21 01:54 030 6 gusting 7 26.7
2014-Sep-21 01:48 030 6 gusting 7 26.7
2014-Sep-21 01:42 030 6 gusting 7 26.7
2014-Sep-21 01:36 030 6 gusting 7 26.7
2014-Sep-21 01:30 030 6 gusting 7 26.7
2014-Sep-21 01:24 030 6 gusting 7 26.8
2014-Sep-21 01:18 030 5 gusting 7 26.8
2014-Sep-21 01:12 030 5 gusting 6 26.9
2014-Sep-21 01:06 030 5 gusting 6 26.9
2014-Sep-21 01:00 040 6 gusting 7 26.9
2014-Sep-21 00:54 040 6 gusting 7 26.9
2014-Sep-21 00:48 050 6 gusting 7 27.0
2014-Sep-20 22:54 360 12 gusting 13 27.4
2014-Sep-20 22:48 360 10 gusting 12 27.4
2014-Sep-20 22:42 010 11 gusting 12 27.3
2014-Sep-20 22:36 350 12 gusting 14 27.3
2014-Sep-20 22:30 340 13 gusting 14 27.3
2014-Sep-20 22:24 350 12 gusting 14 27.4
2014-Sep-20 22:18 360 12 gusting 14 27.5
2014-Sep-20 22:12 350 12 gusting 14 27.6
2014-Sep-20 22:06 350 12 gusting 14 27.6
2014-Sep-20 22:00 350 11 gusting 14 27.6
2014-Sep-20 21:54 360 8 gusting 10 27.6
2014-Sep-20 21:48 350 5 gusting 6 27.6
2014-Sep-20 20:54 350 15 gusting 17 27.0
2014-Sep-20 20:48 360 17 gusting 19 26.9
2014-Sep-20 20:42 010 16 gusting 19 27.0
2014-Sep-20 20:36 360 14 gusting 18 27.2
2014-Sep-20 20:30 350 15 gusting 20 27.1
2014-Sep-20 20:24 330 18 gusting 23 27.4
2014-Sep-20 20:18 290 12 gusting 20 29.3
2014-Sep-20 20:12 270 9 gusting 12 29.5
2014-Sep-20 20:06 260 9 gusting 11 29.5
2014-Sep-20 20:00 260 5 gusting 9 29.3
2014-Sep-20 19:54 29.0
2014-Sep-20 19:48 29.0
2014-Sep-20 18:54 060 9 gusting 14 27.8
2014-Sep-20 18:48 050 11 gusting 14 27.6
2014-Sep-20 17:54 160 3 gusting 5 28.1
2014-Sep-20 17:48 120 4 gusting 6 27.7
2014-Sep-20 16:54 140 4 gusting 9 28.3
2014-Sep-20 16:48 200 6 gusting 7 28.9
2014-Sep-20 15:54 220 9 gusting 10 29.3
2014-Sep-20 15:48 210 9 gusting 11 29.3
2014-Sep-20 15:42 200 7 gusting 9 29.1
2014-Sep-20 15:36 190 7 gusting 9 29.1
2014-Sep-20 15:30 180 7 gusting 9 29.1
2014-Sep-20 15:24 190 10 gusting 12 29.0
2014-Sep-20 15:18 180 10 gusting 12 28.9
2014-Sep-20 15:12 180 10 gusting 12 28.9
2014-Sep-20 15:06 180 8 gusting 10 29.0
2014-Sep-20 15:00 170 6 gusting 10 28.8
2014-Sep-20 14:54 150 4 gusting 5 28.6
2014-Sep-20 14:48 140 4 gusting 5 28.4
2014-Sep-20 13:54 130 4 gusting 5 27.9
2014-Sep-20 13:48 140 5 gusting 5 27.9
2014-Sep-20 12:54 140 6 gusting 7 27.7
2014-Sep-20 12:48 140 5 gusting 6 27.7
2014-Sep-20 12:42 130 4 gusting 5 27.7
2014-Sep-20 12:36 120 4 gusting 5 27.7
2014-Sep-20 12:30 120 4 gusting 5 27.6
2014-Sep-20 12:24 120 4 gusting 5 27.5
2014-Sep-20 12:18 100 4 gusting 5 27.5
2014-Sep-20 12:12 120 4 gusting 6 27.5
2014-Sep-20 12:06 140 4 gusting 5 27.6
2014-Sep-20 12:00 130 4 gusting 5 27.5
2014-Sep-20 11:54 120 3 gusting 4 27.5
2014-Sep-20 11:48 120 3 gusting 4 27.4
2014-Sep-20 10:54 110 4 gusting 6 27.4
2014-Sep-20 10:48 110 4 gusting 5 27.3
2014-Sep-20 10:42 120 3 gusting 5 27.2
2014-Sep-20 10:36 110 4 gusting 5 27.2
2014-Sep-20 10:30 100 4 gusting 5 27.2
2014-Sep-20 10:24 110 4 gusting 5 27.2
2014-Sep-20 10:18 100 5 gusting 6 27.1
2014-Sep-20 10:12 100 4 gusting 6 27.1
2014-Sep-20 10:06 080 3 gusting 4 27.0
2014-Sep-20 10:00 080 3 gusting 4 27.0
2014-Sep-20 09:54 080 3 gusting 4 26.9
2014-Sep-20 09:48 070 4 gusting 5 26.8
2014-Sep-20 08:54 050 3 gusting 4 26.7
2014-Sep-20 08:48 060 3 gusting 4 26.7
2014-Sep-20 08:42 050 3 gusting 4 26.6
2014-Sep-20 08:36 050 3 gusting 4 26.5
2014-Sep-20 08:30 050 3 gusting 4 26.4
2014-Sep-20 08:24 060 2 gusting 4 26.3
2014-Sep-20 08:18 060 3 gusting 4 26.2
2014-Sep-20 08:12 050 3 gusting 4 26.1
2014-Sep-20 08:06 050 3 gusting 4 26.1
2014-Sep-20 08:00 040 3 gusting 4 26.0
2014-Sep-20 07:54 040 3 gusting 4 26.0
2014-Sep-20 07:48 050 4 gusting 4 26.0
2014-Sep-20 06:54 040 5 gusting 6 25.9
2014-Sep-20 06:48 040 5 gusting 6 25.9
2014-Sep-20 06:42 040 5 gusting 7 26.0
2014-Sep-20 06:36 030 6 gusting 7 26.1
2014-Sep-20 06:30 020 6 gusting 7 26.2
2014-Sep-20 06:24 020 6 gusting 6 26.2
2014-Sep-20 06:18 030 6 gusting 7 26.1
2014-Sep-20 06:12 020 5 gusting 7 26.0
2014-Sep-20 06:06 020 6 gusting 7 26.1
2014-Sep-20 06:00 030 6 gusting 7 26.5